createdAt,value
2019-04-29T04:00:43.836Z,10.20
2019-04-29T04:02:39.590Z,18.40
2019-04-29T04:04:39.561Z,17.70
2019-04-29T04:06:39.564Z,16.00
2019-04-29T04:08:39.518Z,18.90
2019-04-29T04:10:39.510Z,21.70
2019-04-29T04:12:39.530Z,25.60
2019-04-29T04:14:39.488Z,31.90
2019-04-29T04:16:39.451Z,21.40
2019-04-29T04:18:39.465Z,21.20
2019-04-29T04:20:39.411Z,23.20
2019-04-29T04:22:39.402Z,27.00
2019-04-29T04:24:39.366Z,21.30
2019-04-29T04:26:39.334Z,19.40
2019-04-29T04:28:39.404Z,23.20
2019-04-29T04:30:39.295Z,23.40
2019-04-29T04:32:39.297Z,24.70
2019-04-29T04:34:39.249Z,28.80
2019-04-29T04:36:39.298Z,23.80
2019-04-29T04:38:39.213Z,21.50
2019-04-29T04:40:39.198Z,24.70
2019-04-29T04:42:39.164Z,26.20
2019-04-29T04:44:39.162Z,25.20
2019-04-29T04:46:39.135Z,21.00
2019-04-29T04:48:39.134Z,25.90
2019-04-29T04:50:39.079Z,22.90
2019-04-29T04:52:39.070Z,23.70
2019-04-29T04:54:39.050Z,26.20
2019-04-29T04:56:39.007Z,25.00
2019-04-29T04:58:39.033Z,24.10
2019-04-29T05:00:38.962Z,24.00
2019-04-29T05:02:38.953Z,21.80
2019-04-29T05:04:38.938Z,20.30
2019-04-29T05:06:38.939Z,24.30
2019-04-29T05:08:38.904Z,21.60
2019-04-29T05:10:38.856Z,24.10
2019-04-29T05:12:38.872Z,23.20
2019-04-29T05:14:38.863Z,25.50
2019-04-29T05:16:38.812Z,23.10
2019-04-29T05:18:38.794Z,27.00
2019-04-29T05:20:38.767Z,27.10
2019-04-29T05:22:38.729Z,24.70
2019-04-29T05:24:38.714Z,26.10
2019-04-29T05:26:38.698Z,23.90
2019-04-29T05:28:38.711Z,21.90
2019-04-29T05:30:38.654Z,20.80
2019-04-29T05:32:38.640Z,18.20
2019-04-29T05:34:41.724Z,17.80
2019-04-29T05:36:39.635Z,19.80
2019-04-29T05:38:38.586Z,18.50
2019-04-29T05:40:38.534Z,18.40
2019-04-29T05:42:38.556Z,18.20
2019-04-29T05:44:38.568Z,18.80
2019-04-29T05:46:38.502Z,18.90
2019-04-29T05:48:38.449Z,19.50
2019-04-29T05:50:38.473Z,18.50
2019-04-29T05:52:39.517Z,15.80
2019-04-29T05:54:38.403Z,15.70
2019-04-29T05:56:38.369Z,14.20
2019-04-29T05:58:39.598Z,13.80
2019-04-29T06:00:38.364Z,13.10
2019-04-29T06:02:38.893Z,15.70
2019-04-29T06:04:38.280Z,13.40
2019-04-29T06:06:38.293Z,17.50
2019-04-29T06:08:39.091Z,13.20
2019-04-29T06:10:38.267Z,13.90
2019-04-29T06:12:38.214Z,14.60
2019-04-29T06:14:38.172Z,12.80
2019-04-29T06:16:38.181Z,14.30
2019-04-29T06:18:40.797Z,19.40
2019-04-29T06:20:38.112Z,13.70
2019-04-29T06:22:41.834Z,13.90
2019-04-29T06:24:41.021Z,15.00
2019-04-29T06:26:38.039Z,13.90
2019-04-29T06:28:38.056Z,15.10
2019-04-29T06:30:40.569Z,13.80
2019-04-29T06:32:37.987Z,14.20
2019-04-29T06:34:40.083Z,15.50
2019-04-29T06:36:37.976Z,13.60
2019-04-29T06:38:37.910Z,13.90
2019-04-29T06:40:37.902Z,13.90
2019-04-29T06:42:37.884Z,14.80
2019-04-29T06:44:37.845Z,14.80
2019-04-29T06:46:37.849Z,15.30
2019-04-29T08:17:25.974Z,25.70
2019-04-29T08:19:29.536Z,26.70
2019-04-29T08:21:26.394Z,23.60
2019-04-29T08:23:25.392Z,22.60
2019-04-29T08:25:25.963Z,23.20
2019-04-29T08:27:39.085Z,21.60
2019-04-29T08:29:26.325Z,19.30
2019-04-29T08:31:25.286Z,21.80
2019-04-29T08:33:25.309Z,20.90
2019-04-29T08:35:25.260Z,21.00
2019-04-29T08:37:25.247Z,20.30
2019-04-29T08:39:29.206Z,22.20
2019-04-29T08:41:28.800Z,20.10
2019-04-29T08:43:25.197Z,18.00
2019-04-29T08:45:25.189Z,18.30
2019-04-29T08:47:30.576Z,19.10
2019-04-29T08:49:26.164Z,17.20
2019-04-29T08:51:25.095Z,18.90
2019-04-29T08:53:25.067Z,19.10
2019-04-29T08:55:26.532Z,17.90
2019-04-29T08:57:26.020Z,20.30
2019-04-29T08:59:25.827Z,16.20
2019-04-29T09:01:29.284Z,15.90
2019-04-29T09:03:39.199Z,19.20
2019-04-29T09:05:25.961Z,20.80
2019-04-29T09:07:24.917Z,17.30
2019-04-29T09:09:29.151Z,15.90
2019-04-29T09:11:24.868Z,16.00
2019-04-29T09:13:24.868Z,18.30
2019-04-29T09:15:24.829Z,19.40
2019-04-29T09:17:24.816Z,17.40
2019-04-29T09:19:24.863Z,19.30
2019-04-29T09:21:24.752Z,20.00
2019-04-29T09:23:24.757Z,20.70
2019-04-29T09:25:26.109Z,15.00
2019-04-29T09:27:24.694Z,10.40
2019-04-29T09:29:24.684Z,14.50
2019-04-29T09:31:24.671Z,13.60
2019-04-29T09:33:24.654Z,16.70
2019-04-29T09:35:24.618Z,9.80
2019-04-29T09:37:24.615Z,12.30
2019-04-29T09:39:24.566Z,13.80
2019-04-29T09:41:24.566Z,14.80
2019-04-29T09:43:25.938Z,16.80
2019-04-29T09:45:24.621Z,14.60
2019-04-29T09:47:24.485Z,14.60
2019-04-29T09:49:24.452Z,13.70
2019-04-29T09:51:27.750Z,16.90
2019-04-29T09:53:24.418Z,17.70
2019-04-29T09:55:24.405Z,15.00
2019-04-29T09:57:24.380Z,13.60
2019-04-29T09:59:24.357Z,15.50
2019-04-29T10:01:24.322Z,15.20
2019-04-29T10:03:24.366Z,16.20
2019-04-29T10:05:24.313Z,15.80
2019-04-29T10:07:24.263Z,17.00
2019-04-29T10:09:24.247Z,16.20
2019-04-29T10:11:24.207Z,14.60
2019-04-29T10:13:24.225Z,22.00
2019-04-29T10:15:24.175Z,15.40
2019-04-29T10:17:24.146Z,15.10
2019-04-29T10:19:24.198Z,16.80
2019-04-29T10:21:24.110Z,14.90
2019-04-29T10:23:24.085Z,16.00
2019-04-29T10:25:24.064Z,15.00
2019-04-29T10:27:24.061Z,17.10
2019-04-29T10:29:25.752Z,16.10
2019-04-29T10:31:24.006Z,16.70
2019-04-29T10:33:24.035Z,15.80
2019-04-29T10:35:23.985Z,14.90
2019-04-29T10:37:31.308Z,15.90
2019-04-29T10:39:24.919Z,18.60
2019-04-29T10:48:47.793Z,16.70
2019-04-29T11:06:45.465Z,14.70
2019-04-29T11:08:33.766Z,12.80
2019-04-29T11:21:21.173Z,11.40
2019-04-29T11:23:21.158Z,13.40
2019-04-29T11:25:21.115Z,12.40
2019-04-29T11:27:21.095Z,12.50
2019-04-29T11:29:22.009Z,10.90
2019-04-29T11:31:22.066Z,11.20
2019-04-29T11:33:21.035Z,10.80
2019-04-29T11:35:24.575Z,11.80
2019-04-29T11:37:23.945Z,14.90
2019-04-29T11:39:20.978Z,11.70
2019-04-29T11:41:21.027Z,11.60
2019-04-29T11:43:20.937Z,12.70
2019-04-29T11:45:20.908Z,12.60
2019-04-29T11:47:24.944Z,11.20
2019-04-29T11:49:20.892Z,11.40
2019-04-29T11:51:20.836Z,19.50
2019-04-29T11:53:20.829Z,12.40
2019-04-29T11:55:20.837Z,15.50
2019-04-29T11:57:20.798Z,12.40
2019-04-29T11:59:20.878Z,15.60
2019-04-29T12:01:20.748Z,13.80
2019-04-29T12:03:20.730Z,13.20
2019-04-29T12:05:20.696Z,10.70
2019-04-29T12:07:21.196Z,11.50
2019-04-29T12:09:20.668Z,12.70
2019-04-29T12:11:20.647Z,11.80
2019-04-29T12:13:27.142Z,12.60
2019-04-29T12:15:21.584Z,12.40
2019-04-29T12:17:20.581Z,12.00
2019-04-29T12:19:21.283Z,12.30
2019-04-29T12:21:20.540Z,13.50
2019-04-29T12:23:20.539Z,13.10
2019-04-29T12:25:23.038Z,9.80
2019-04-29T12:27:21.744Z,10.80
2019-04-29T12:29:20.523Z,10.50
2019-04-29T12:31:20.405Z,10.50
2019-04-29T12:33:20.379Z,12.50
2019-04-29T12:35:21.694Z,12.40
2019-04-29T12:37:20.360Z,11.20
2019-04-29T12:39:42.243Z,13.00
2019-04-29T12:41:25.412Z,21.60
2019-04-29T12:43:21.269Z,13.10
2019-04-29T12:45:20.254Z,11.00
2019-04-29T12:47:26.747Z,11.40
2019-04-29T12:49:21.225Z,11.50
2019-04-29T12:51:20.200Z,11.40
2019-04-29T12:53:20.168Z,14.30
2019-04-29T12:55:29.354Z,12.70
2019-04-29T12:57:23.578Z,13.80
2019-04-29T12:59:20.226Z,11.40
2019-04-29T13:01:20.071Z,11.50
2019-04-29T13:03:20.063Z,12.40
2019-04-29T13:05:20.050Z,12.30
2019-04-29T13:07:20.015Z,9.60
2019-04-29T13:09:20.001Z,9.90
2019-04-29T13:11:22.342Z,9.70
2019-04-29T13:13:22.013Z,10.60
2019-04-29T13:15:19.930Z,12.10
2019-04-29T13:17:19.900Z,10.50
2019-04-29T13:19:20.666Z,10.00
2019-04-29T13:21:19.874Z,8.10
2019-04-29T13:23:32.988Z,8.50
2019-04-29T13:25:20.974Z,9.60
2019-04-29T13:27:20.845Z,11.10
2019-04-29T13:29:27.245Z,9.50
2019-04-29T13:31:37.025Z,7.80
2019-04-29T13:33:20.724Z,9.60
2019-04-29T13:35:19.705Z,10.90
2019-04-29T13:37:20.047Z,9.50
2019-04-29T13:39:37.866Z,8.10
2019-04-29T13:41:24.344Z,8.60
2019-04-29T13:43:25.333Z,9.30
2019-04-29T13:45:24.881Z,12.60
2019-04-29T13:47:28.353Z,7.80
2019-04-29T13:49:20.557Z,9.40
2019-04-29T13:51:34.814Z,9.30
2019-04-29T13:53:20.511Z,14.70
2019-04-29T13:55:46.223Z,10.60
2019-04-29T13:57:20.460Z,9.50
2019-04-29T13:59:19.567Z,12.20
2019-04-29T14:01:24.654Z,11.00
2019-04-29T14:03:20.393Z,10.10
2019-04-29T14:05:19.407Z,8.00
2019-04-29T14:07:19.874Z,8.20
2019-04-29T14:09:19.329Z,9.20
2019-04-29T14:11:21.947Z,11.50
2019-04-29T14:13:21.049Z,9.80
2019-04-29T14:15:19.721Z,8.80
2019-04-29T14:17:26.408Z,10.50
2019-04-29T14:19:39.458Z,9.00
2019-04-29T14:21:20.198Z,9.80
2019-04-29T14:23:19.204Z,10.00
2019-04-29T14:25:19.159Z,11.90
2019-04-29T14:27:24.955Z,10.70
2019-04-29T14:29:22.841Z,9.30
2019-04-29T14:31:22.674Z,8.70
2019-04-29T14:33:24.059Z,11.10
2019-04-29T14:35:20.061Z,9.50
2019-04-29T14:37:24.464Z,9.20
2019-04-29T14:39:36.098Z,7.70
2019-04-29T14:41:20.954Z,8.10
2019-04-29T14:43:28.620Z,9.10
2019-04-29T14:45:19.945Z,9.50
2019-04-29T14:47:18.922Z,9.70
2019-04-29T14:49:19.039Z,10.10
2019-04-29T14:51:18.892Z,11.10
2019-04-29T14:53:19.480Z,10.30
2019-04-29T14:55:20.066Z,10.30
2019-04-29T14:57:19.816Z,10.60
2019-04-29T14:59:19.131Z,9.10
2019-04-29T15:01:18.822Z,9.10
2019-04-29T15:03:18.767Z,9.40
2019-04-29T15:05:18.854Z,8.10
2019-04-29T15:07:18.755Z,9.50
2019-04-29T15:09:19.987Z,7.60
2019-04-29T15:11:32.235Z,10.10
2019-04-29T15:13:21.643Z,12.80
2019-04-29T15:15:18.624Z,7.90
2019-04-29T15:17:18.606Z,7.70
2019-04-29T15:19:18.570Z,7.60
2019-04-29T15:21:31.665Z,6.70
2019-04-29T15:23:28.362Z,6.00
2019-04-29T15:25:21.007Z,5.50
2019-04-29T15:27:18.503Z,6.30
2019-04-29T15:29:18.468Z,6.90
2019-04-29T15:31:18.456Z,5.70
2019-04-29T15:33:18.428Z,5.90
2019-04-29T15:35:19.896Z,6.00
2019-04-29T15:37:19.390Z,5.60
2019-04-29T15:39:18.583Z,5.70
2019-04-29T15:41:18.590Z,5.70
2019-04-29T15:43:24.459Z,7.00
2019-04-29T15:45:19.295Z,4.90
2019-04-29T15:47:18.344Z,8.60
2019-04-29T15:49:20.204Z,6.70
2019-04-29T15:51:19.234Z,6.30
2019-04-29T15:53:18.219Z,5.80
2019-04-29T15:55:18.238Z,5.80
2019-04-29T15:57:18.181Z,6.70
2019-04-29T15:59:18.150Z,7.30
2019-04-29T16:01:27.284Z,6.60
2019-04-29T16:03:20.230Z,6.10
2019-04-29T16:05:18.085Z,6.30
2019-04-29T16:07:19.107Z,8.10
2019-04-29T16:09:18.032Z,6.40
2019-04-29T16:11:18.019Z,6.00
2019-04-29T16:13:22.397Z,6.10
2019-04-29T16:15:18.960Z,6.20
2019-04-29T16:17:20.564Z,4.90
2019-04-29T16:19:17.954Z,5.30
2019-04-29T16:21:17.902Z,5.70
2019-04-29T16:23:17.888Z,6.10
2019-04-29T16:25:17.876Z,6.40
2019-04-29T16:27:17.832Z,4.90
2019-04-29T16:29:17.853Z,5.40
2019-04-29T16:31:17.826Z,5.70
2019-04-29T16:33:17.819Z,4.30
2019-04-29T16:35:23.204Z,4.70
2019-04-29T16:37:19.549Z,3.80
2019-04-29T16:39:17.701Z,4.40
2019-04-29T16:41:19.453Z,4.30
2019-04-29T16:43:17.685Z,4.50
2019-04-29T16:45:17.651Z,4.00
2019-04-29T16:47:17.696Z,6.30
2019-04-29T16:49:17.622Z,5.70
2019-04-29T16:51:17.586Z,4.20
2019-04-29T16:53:17.576Z,4.10
2019-04-29T16:55:17.545Z,6.30
2019-04-29T16:57:17.525Z,4.40
2019-04-29T16:59:17.497Z,5.20
2019-04-29T17:01:17.463Z,4.80
2019-04-29T17:03:17.464Z,4.50
2019-04-29T17:05:17.444Z,4.30
2019-04-29T17:07:17.406Z,4.10
2019-04-29T17:09:22.745Z,4.90
2019-04-29T17:11:19.542Z,7.20
2019-04-29T17:13:23.362Z,5.30
2019-04-29T17:15:25.095Z,5.50
2019-04-29T17:17:18.323Z,5.10
2019-04-29T17:19:17.263Z,5.40
2019-04-29T17:21:17.258Z,5.80
2019-04-29T17:23:23.926Z,5.90
2019-04-29T17:25:18.232Z,6.60
2019-04-29T17:27:17.185Z,7.20
2019-04-29T17:29:38.569Z,6.50
2019-04-29T17:31:18.690Z,6.40
2019-04-29T17:33:26.392Z,6.30
2019-04-29T17:35:21.482Z,7.20
2019-04-29T17:37:17.084Z,7.40
2019-04-29T17:39:17.052Z,6.50
2019-04-29T17:41:17.057Z,7.30
2019-04-29T17:43:17.010Z,6.40
2019-04-29T17:45:27.180Z,7.50
2019-04-29T17:47:17.990Z,6.70
2019-04-29T17:49:16.952Z,7.30
2019-04-29T17:51:16.925Z,7.60
2019-04-29T17:53:17.547Z,8.80
2019-04-29T17:55:16.890Z,8.20
2019-04-29T17:57:28.293Z,8.00
2019-04-29T17:59:17.854Z,10.10
2019-04-29T18:01:16.839Z,9.40
2019-04-29T18:03:16.809Z,7.80
2019-04-29T18:05:17.015Z,12.30
2019-04-29T18:07:16.878Z,7.90
2019-04-29T18:09:16.733Z,7.90
2019-04-29T18:11:16.712Z,10.80
2019-04-29T18:13:23.560Z,8.80
2019-04-29T18:15:20.175Z,11.20
2019-04-29T18:17:24.233Z,7.60
2019-04-29T18:19:17.621Z,8.90
2019-04-29T18:21:16.608Z,9.00
2019-04-29T18:23:19.060Z,9.80
2019-04-29T18:25:16.558Z,8.40
2019-04-29T18:27:16.538Z,8.40
2019-04-29T18:57:59.583Z,10.70
2019-04-29T18:59:59.113Z,9.90
2019-04-29T19:23:10.337Z,16.10
2019-04-29T19:32:44.509Z,17.20
2019-04-29T19:34:50.228Z,20.50
2019-04-29T19:39:16.962Z,16.10
2019-04-29T19:50:51.669Z,17.40
2019-04-29T19:52:35.075Z,20.20
2019-04-29T19:59:51.463Z,22.40
2019-04-29T20:03:24.323Z,21.90
2019-04-29T20:04:58.886Z,22.30
2019-04-29T20:06:58.633Z,24.30
2019-04-29T20:14:30.351Z,23.30
2019-04-29T20:16:40.571Z,23.70
2019-04-29T20:27:26.051Z,26.70
2019-04-29T20:32:07.887Z,25.20
2019-04-29T20:34:10.177Z,28.20
2019-04-29T20:36:02.218Z,31.40
2019-04-29T20:38:00.142Z,26.00
2019-04-29T20:40:01.403Z,27.50
2019-04-29T20:44:49.264Z,27.40
2019-04-29T20:46:56.927Z,28.10
2019-04-29T20:48:59.664Z,27.00
2019-04-29T20:51:14.159Z,29.20
2019-04-29T20:52:45.456Z,28.30
2019-04-29T20:57:41.934Z,28.50
2019-04-29T20:59:19.988Z,26.30
2019-04-29T21:01:29.845Z,29.40
2019-04-29T21:04:46.460Z,27.50
2019-04-29T21:06:25.111Z,25.90
2019-04-29T21:34:17.536Z,26.90
2019-04-29T21:36:15.425Z,26.10
2019-04-29T21:38:17.786Z,26.10
2019-04-29T21:48:25.650Z,20.90
2019-04-29T21:50:15.171Z,21.60
2019-04-29T21:58:34.091Z,24.50
2019-04-29T22:11:26.711Z,28.20
2019-04-29T22:25:13.018Z,30.20
2019-04-29T22:27:12.320Z,31.60
2019-04-29T22:29:08.951Z,32.00
2019-04-29T22:31:18.228Z,31.90
2019-04-29T22:33:08.883Z,32.00
2019-04-29T22:35:08.864Z,30.00
2019-04-29T22:37:08.856Z,33.30
2019-04-29T22:39:08.815Z,31.90
2019-04-29T22:41:11.835Z,31.30
2019-04-29T22:43:10.250Z,35.30
2019-04-29T22:45:08.773Z,35.40
2019-04-29T22:47:08.734Z,32.70
2019-04-29T22:49:08.721Z,35.30
2019-04-29T22:51:10.154Z,33.20
2019-04-29T22:53:09.671Z,37.10
2019-04-29T22:55:08.652Z,33.10
2019-04-29T22:57:08.647Z,35.50
2019-04-29T22:59:08.606Z,33.20
2019-04-29T23:01:08.645Z,32.50
2019-04-29T23:03:08.591Z,34.80
2019-04-29T23:05:08.580Z,33.70
2019-04-29T23:07:08.571Z,36.20
2019-04-29T23:09:12.061Z,34.90
2019-04-29T23:11:08.478Z,35.80
2019-04-29T23:13:08.468Z,34.70
2019-04-29T23:15:08.439Z,33.00
2019-04-29T23:17:12.325Z,35.10
2019-04-29T23:19:09.778Z,34.40
2019-04-29T23:21:08.383Z,36.60
2019-04-29T23:23:08.353Z,34.60
2019-04-29T23:25:08.331Z,34.40
2019-04-29T23:27:11.605Z,34.90
2019-04-29T23:29:09.301Z,34.10
